Terminal Aerodrome Forecast
Issued by NWS

Home | Current Version | Previous Version | Text Only | Print | Product List | Glossary On
Versions: 1 2 3 4 5 6 7 8 9 10 11 12 13 14 15 16 17 18 19 20 21 22 23 24 25 26 27 28 29
000
FTUS43 KLOT 062340
TAFMDW
TAF
KMDW 062340Z 0700/0724 27010G15KT P6SM FEW250
     FM070130 24008KT P6SM FEW200
     FM070700 27010G17KT P6SM SCT200 WS020/29045KT
     FM071200 30011G18KT P6SM VCSH BKN050 PROB30 0713/0715 4SM TSRA
      OVC040CB
     FM071500 01014G22KT P6SM BKN050
     FM071900 02010G17KT P6SM SCT050 BKN120
     FM072300 06008KT P6SM SCT050=

USA.gov is the U.S. government's official web portal to all federal, state and local government web resources and services.